Terminal Aerodrome Forecast
Issued by NWS Charleston, WV

Home | Current Version | Previous Version | Text Only | Print | Product List | Glossary On
Versions: 1 2 3 4 5 6 7 8 9 10 11 12 13 14 15 16 17 18 19 20 21 22
211
FTUS41 KRLX 110538
TAFCRW
TAF
KCRW 110538Z 1106/1206 00000KT P6SM BKN150 WS020/25030KT
     FM111400 13005KT P6SM BKN150
     FM111900 16005KT P6SM SCT070
     FM120300 18005KT 5SM -RA OVC040=

USA.gov is the U.S. government's official web portal to all federal, state and local government web resources and services.